sensor_id;sensor_type;location;lat;lon;timestamp;P1;durP1;ratioP1;P2;durP2;ratioP2
2099;SDS011;1055;48.854;9.302;2023-03-01T00:01:14;22.05;;;13.65;;
2099;SDS011;1055;48.854;9.302;2023-03-01T00:03:44;24.20;;;14.02;;
2099;SDS011;1055;48.854;9.302;2023-03-01T00:06:10;25.80;;;13.10;;
2099;SDS011;1055;48.854;9.302;2023-03-01T00:08:38;22.13;;;13.77;;
2099;SDS011;1055;48.854;9.302;2023-03-01T00:11:06;22.33;;;13.30;;
2099;SDS011;1055;48.854;9.302;2023-03-01T00:13:41;24.80;;;14.32;;
2099;SDS011;1055;48.854;9.302;2023-03-01T00:16:12;22.17;;;13.60;;
2099;SDS011;1055;48.854;9.302;2023-03-01T00:18:47;22.65;;;13.75;;
2099;SDS011;1055;48.854;9.302;2023-03-01T00:21:16;23.75;;;13.60;;
2099;SDS011;1055;48.854;9.302;2023-03-01T00:23:44;20.08;;;12.63;;
2099;SDS011;1055;48.854;9.302;2023-03-01T00:26:14;24.98;;;13.77;;
2099;SDS011;1055;48.854;9.302;2023-03-01T00:28:41;23.98;;;14.13;;
2099;SDS011;1055;48.854;9.302;2023-03-01T00:31:11;24.15;;;13.57;;
2099;SDS011;1055;48.854;9.302;2023-03-01T00:33:42;22.02;;;13.38;;
2099;SDS011;1055;48.854;9.302;2023-03-01T00:36:11;21.95;;;14.07;;
2099;SDS011;1055;48.854;9.302;2023-03-01T00:38:40;22.42;;;13.30;;
2099;SDS011;1055;48.854;9.302;2023-03-01T00:41:10;23.00;;;14.23;;
2099;SDS011;1055;48.854;9.302;2023-03-01T00:43:42;22.45;;;13.90;;
2099;SDS011;1055;48.854;9.302;2023-03-01T00:46:09;27.67;;;15.70;;
2099;SDS011;1055;48.854;9.302;2023-03-01T00:48:38;23.20;;;13.93;;
2099;SDS011;1055;48.854;9.302;2023-03-01T00:51:14;22.33;;;14.10;;
2099;SDS011;1055;48.854;9.302;2023-03-01T00:53:46;24.00;;;13.98;;
2099;SDS011;1055;48.854;9.302;2023-03-01T00:56:15;24.95;;;14.75;;
2099;SDS011;1055;48.854;9.302;2023-03-01T00:58:43;24.40;;;14.20;;
2099;SDS011;1055;48.854;9.302;2023-03-01T01:01:12;24.25;;;15.15;;
2099;SDS011;1055;48.854;9.302;2023-03-01T01:03:47;26.65;;;13.85;;
2099;SDS011;1055;48.854;9.302;2023-03-01T01:06:15;23.60;;;14.20;;
2099;SDS011;1055;48.854;9.302;2023-03-01T01:08:42;23.02;;;13.85;;
2099;SDS011;1055;48.854;9.302;2023-03-01T01:11:09;23.67;;;14.93;;
2099;SDS011;1055;48.854;9.302;2023-03-01T01:13:37;25.35;;;14.63;;
2099;SDS011;1055;48.854;9.302;2023-03-01T01:16:04;24.35;;;14.30;;
2099;SDS011;1055;48.854;9.302;2023-03-01T01:18:30;26.42;;;15.20;;
2099;SDS011;1055;48.854;9.302;2023-03-01T01:20:55;24.13;;;14.70;;
2099;SDS011;1055;48.854;9.302;2023-03-01T01:23:21;24.53;;;15.00;;
2099;SDS011;1055;48.854;9.302;2023-03-01T01:25:47;23.77;;;13.97;;
2099;SDS011;1055;48.854;9.302;2023-03-01T01:28:12;24.23;;;14.80;;
2099;SDS011;1055;48.854;9.302;2023-03-01T01:30:38;23.87;;;14.23;;
2099;SDS011;1055;48.854;9.302;2023-03-01T01:33:04;27.63;;;14.20;;
2099;SDS011;1055;48.854;9.302;2023-03-01T01:35:29;31.80;;;16.10;;
2099;SDS011;1055;48.854;9.302;2023-03-01T01:37:55;23.83;;;14.33;;
2099;SDS011;1055;48.854;9.302;2023-03-01T01:40:20;32.17;;;14.57;;
2099;SDS011;1055;48.854;9.302;2023-03-01T01:42:46;25.83;;;15.10;;
2099;SDS011;1055;48.854;9.302;2023-03-01T01:45:24;24.20;;;15.03;;
2099;SDS011;1055;48.854;9.302;2023-03-01T01:47:50;25.70;;;15.15;;
2099;SDS011;1055;48.854;9.302;2023-03-01T01:50:17;25.25;;;14.60;;
2099;SDS011;1055;48.854;9.302;2023-03-01T01:52:44;25.73;;;16.20;;
2099;SDS011;1055;48.854;9.302;2023-03-01T01:55:14;25.08;;;14.75;;
2099;SDS011;1055;48.854;9.302;2023-03-01T01:57:47;22.60;;;13.93;;
2099;SDS011;1055;48.854;9.302;2023-03-01T02:00:17;26.45;;;15.52;;
2099;SDS011;1055;48.854;9.302;2023-03-01T02:02:48;25.63;;;13.85;;
2099;SDS011;1055;48.854;9.302;2023-03-01T02:05:28;28.35;;;15.70;;
2099;SDS011;1055;48.854;9.302;2023-03-01T02:08:08;25.75;;;14.98;;
2099;SDS011;1055;48.854;9.302;2023-03-01T02:10:36;28.35;;;16.25;;
2099;SDS011;1055;48.854;9.302;2023-03-01T02:13:03;25.27;;;14.48;;
2099;SDS011;1055;48.854;9.302;2023-03-01T02:15:31;27.10;;;15.60;;
2099;SDS011;1055;48.854;9.302;2023-03-01T02:17:59;26.85;;;14.70;;
2099;SDS011;1055;48.854;9.302;2023-03-01T02:23:07;27.40;;;15.55;;
2099;SDS011;1055;48.854;9.302;2023-03-01T02:28:33;26.80;;;15.93;;
2099;SDS011;1055;48.854;9.302;2023-03-01T02:31:07;28.75;;;15.88;;
2099;SDS011;1055;48.854;9.302;2023-03-01T02:33:53;28.05;;;16.40;;
2099;SDS011;1055;48.854;9.302;2023-03-01T02:36:24;29.60;;;16.23;;
2099;SDS011;1055;48.854;9.302;2023-03-01T02:38:55;28.52;;;15.38;;
2099;SDS011;1055;48.854;9.302;2023-03-01T02:41:23;29.42;;;16.60;;
2099;SDS011;1055;48.854;9.302;2023-03-01T02:43:51;28.45;;;16.25;;
2099;SDS011;1055;48.854;9.302;2023-03-01T02:46:18;25.20;;;15.47;;
2099;SDS011;1055;48.854;9.302;2023-03-01T02:48:49;29.75;;;17.08;;
2099;SDS011;1055;48.854;9.302;2023-03-01T02:56:17;28.50;;;16.47;;
2099;SDS011;1055;48.854;9.302;2023-03-01T02:58:43;31.70;;;16.65;;
2099;SDS011;1055;48.854;9.302;2023-03-01T03:01:12;28.88;;;16.88;;
2099;SDS011;1055;48.854;9.302;2023-03-01T03:03:40;27.42;;;16.38;;
2099;SDS011;1055;48.854;9.302;2023-03-01T03:06:06;28.02;;;16.02;;
2099;SDS011;1055;48.854;9.302;2023-03-01T03:08:32;28.57;;;17.70;;
2099;SDS011;1055;48.854;9.302;2023-03-01T03:10:57;27.90;;;16.40;;
2099;SDS011;1055;48.854;9.302;2023-03-01T03:13:23;30.97;;;17.30;;
2099;SDS011;1055;48.854;9.302;2023-03-01T03:15:53;30.98;;;16.95;;
2099;SDS011;1055;48.854;9.302;2023-03-01T03:18:20;29.20;;;16.45;;
2099;SDS011;1055;48.854;9.302;2023-03-01T03:20:46;30.27;;;17.15;;
2099;SDS011;1055;48.854;9.302;2023-03-01T03:23:12;32.50;;;17.83;;
2099;SDS011;1055;48.854;9.302;2023-03-01T03:25:38;30.48;;;16.48;;
2099;SDS011;1055;48.854;9.302;2023-03-01T03:28:05;28.85;;;16.98;;
2099;SDS011;1055;48.854;9.302;2023-03-01T03:30:34;31.38;;;17.23;;
2099;SDS011;1055;48.854;9.302;2023-03-01T03:33:01;30.42;;;16.17;;
2099;SDS011;1055;48.854;9.302;2023-03-01T03:35:49;29.15;;;17.00;;
2099;SDS011;1055;48.854;9.302;2023-03-01T03:38:15;29.75;;;16.40;;
2099;SDS011;1055;48.854;9.302;2023-03-01T03:40:46;29.90;;;17.75;;
2099;SDS011;1055;48.854;9.302;2023-03-01T03:43:19;27.92;;;16.70;;
2099;SDS011;1055;48.854;9.302;2023-03-01T03:45:47;29.52;;;15.70;;
2099;SDS011;1055;48.854;9.302;2023-03-01T03:48:14;26.42;;;15.25;;
2099;SDS011;1055;48.854;9.302;2023-03-01T03:50:41;27.42;;;16.05;;
2099;SDS011;1055;48.854;9.302;2023-03-01T03:53:08;29.63;;;17.17;;
2099;SDS011;1055;48.854;9.302;2023-03-01T03:55:42;30.20;;;18.00;;
2099;SDS011;1055;48.854;9.302;2023-03-01T03:58:09;30.20;;;17.35;;
2099;SDS011;1055;48.854;9.302;2023-03-01T04:00:36;27.17;;;15.48;;
2099;SDS011;1055;48.854;9.302;2023-03-01T04:03:03;30.30;;;16.80;;
2099;SDS011;1055;48.854;9.302;2023-03-01T04:05:29;28.45;;;15.93;;
2099;SDS011;1055;48.854;9.302;2023-03-01T04:07:56;32.93;;;17.90;;
2099;SDS011;1055;48.854;9.302;2023-03-01T04:10:32;28.95;;;17.98;;
2099;SDS011;1055;48.854;9.302;2023-03-01T04:13:00;34.30;;;16.58;;
2099;SDS011;1055;48.854;9.302;2023-03-01T04:15:26;31.97;;;17.43;;
2099;SDS011;1055;48.854;9.302;2023-03-01T04:17:52;28.52;;;16.98;;
2099;SDS011;1055;48.854;9.302;2023-03-01T04:20:20;26.00;;;16.15;;
2099;SDS011;1055;48.854;9.302;2023-03-01T04:22:51;26.77;;;16.48;;
2099;SDS011;1055;48.854;9.302;2023-03-01T04:25:24;31.73;;;18.33;;
2099;SDS011;1055;48.854;9.302;2023-03-01T04:27:50;28.90;;;17.13;;
2099;SDS011;1055;48.854;9.302;2023-03-01T04:30:15;29.73;;;17.20;;
2099;SDS011;1055;48.854;9.302;2023-03-01T04:32:41;27.70;;;16.67;;
2099;SDS011;1055;48.854;9.302;2023-03-01T04:35:07;28.17;;;16.50;;
2099;SDS011;1055;48.854;9.302;2023-03-01T04:37:33;29.67;;;17.48;;
2099;SDS011;1055;48.854;9.302;2023-03-01T04:40:00;28.77;;;16.65;;
2099;SDS011;1055;48.854;9.302;2023-03-01T04:42:26;42.15;;;18.35;;
2099;SDS011;1055;48.854;9.302;2023-03-01T04:44:51;31.33;;;17.50;;
2099;SDS011;1055;48.854;9.302;2023-03-01T04:47:17;27.47;;;17.30;;
2099;SDS011;1055;48.854;9.302;2023-03-01T04:49:43;32.43;;;19.13;;
2099;SDS011;1055;48.854;9.302;2023-03-01T04:52:08;29.73;;;16.73;;
2099;SDS011;1055;48.854;9.302;2023-03-01T04:54:34;35.83;;;18.63;;
2099;SDS011;1055;48.854;9.302;2023-03-01T04:57:01;29.77;;;16.52;;
2099;SDS011;1055;48.854;9.302;2023-03-01T04:59:27;31.30;;;18.00;;
2099;SDS011;1055;48.854;9.302;2023-03-01T05:01:54;26.00;;;17.02;;
2099;SDS011;1055;48.854;9.302;2023-03-01T05:04:21;29.50;;;16.63;;
2099;SDS011;1055;48.854;9.302;2023-03-01T05:06:47;30.38;;;17.45;;
2099;SDS011;1055;48.854;9.302;2023-03-01T05:09:13;44.13;;;21.67;;
2099;SDS011;1055;48.854;9.302;2023-03-01T05:11:38;33.37;;;18.30;;
2099;SDS011;1055;48.854;9.302;2023-03-01T05:14:05;27.67;;;17.20;;
2099;SDS011;1055;48.854;9.302;2023-03-01T05:16:31;30.75;;;15.82;;
2099;SDS011;1055;48.854;9.302;2023-03-01T05:18:58;29.67;;;18.13;;
2099;SDS011;1055;48.854;9.302;2023-03-01T05:21:24;29.00;;;17.52;;
2099;SDS011;1055;48.854;9.302;2023-03-01T05:23:51;28.23;;;16.95;;
2099;SDS011;1055;48.854;9.302;2023-03-01T05:26:17;26.90;;;16.08;;
2099;SDS011;1055;48.854;9.302;2023-03-01T05:28:46;26.80;;;16.70;;
2099;SDS011;1055;48.854;9.302;2023-03-01T05:31:12;29.73;;;17.17;;
2099;SDS011;1055;48.854;9.302;2023-03-01T05:33:39;28.10;;;16.70;;
2099;SDS011;1055;48.854;9.302;2023-03-01T05:36:06;28.30;;;17.15;;
2099;SDS011;1055;48.854;9.302;2023-03-01T05:38:33;29.17;;;17.48;;
2099;SDS011;1055;48.854;9.302;2023-03-01T05:40:59;30.23;;;17.65;;
2099;SDS011;1055;48.854;9.302;2023-03-01T05:43:25;28.97;;;16.17;;
2099;SDS011;1055;48.854;9.302;2023-03-01T05:45:50;30.00;;;17.43;;
2099;SDS011;1055;48.854;9.302;2023-03-01T05:48:16;28.50;;;16.77;;
2099;SDS011;1055;48.854;9.302;2023-03-01T05:50:44;30.98;;;16.50;;
2099;SDS011;1055;48.854;9.302;2023-03-01T05:53:13;30.33;;;16.90;;
2099;SDS011;1055;48.854;9.302;2023-03-01T05:55:44;30.75;;;18.60;;
2099;SDS011;1055;48.854;9.302;2023-03-01T05:58:13;28.95;;;17.02;;
2099;SDS011;1055;48.854;9.302;2023-03-01T06:00:40;28.85;;;17.35;;
2099;SDS011;1055;48.854;9.302;2023-03-01T06:03:09;30.52;;;17.83;;
2099;SDS011;1055;48.854;9.302;2023-03-01T06:05:36;30.30;;;18.58;;
2099;SDS011;1055;48.854;9.302;2023-03-01T06:08:02;28.50;;;16.87;;
2099;SDS011;1055;48.854;9.302;2023-03-01T06:10:27;32.00;;;17.67;;
2099;SDS011;1055;48.854;9.302;2023-03-01T06:12:53;26.27;;;16.90;;
2099;SDS011;1055;48.854;9.302;2023-03-01T06:15:19;26.40;;;17.43;;
2099;SDS011;1055;48.854;9.302;2023-03-01T06:17:45;33.13;;;16.93;;
2099;SDS011;1055;48.854;9.302;2023-03-01T06:20:19;29.88;;;18.00;;
2099;SDS011;1055;48.854;9.302;2023-03-01T06:22:46;34.58;;;18.20;;
2099;SDS011;1055;48.854;9.302;2023-03-01T06:25:15;27.77;;;17.20;;
2099;SDS011;1055;48.854;9.302;2023-03-01T06:27:42;32.63;;;17.10;;
2099;SDS011;1055;48.854;9.302;2023-03-01T06:30:09;32.50;;;17.13;;
2099;SDS011;1055;48.854;9.302;2023-03-01T06:32:36;34.60;;;18.05;;
2099;SDS011;1055;48.854;9.302;2023-03-01T06:35:03;27.05;;;16.30;;
2099;SDS011;1055;48.854;9.302;2023-03-01T06:37:29;31.45;;;16.88;;
2099;SDS011;1055;48.854;9.302;2023-03-01T06:39:55;29.57;;;19.60;;
2099;SDS011;1055;48.854;9.302;2023-03-01T06:42:20;29.17;;;16.10;;
2099;SDS011;1055;48.854;9.302;2023-03-01T06:44:46;29.73;;;17.93;;
2099;SDS011;1055;48.854;9.302;2023-03-01T06:47:12;29.23;;;16.57;;
2099;SDS011;1055;48.854;9.302;2023-03-01T06:49:37;31.37;;;18.37;;
2099;SDS011;1055;48.854;9.302;2023-03-01T06:52:03;29.90;;;18.23;;
2099;SDS011;1055;48.854;9.302;2023-03-01T06:54:29;35.40;;;20.67;;
2099;SDS011;1055;48.854;9.302;2023-03-01T06:56:54;32.00;;;20.00;;
2099;SDS011;1055;48.854;9.302;2023-03-01T06:59:20;31.80;;;18.17;;
2099;SDS011;1055;48.854;9.302;2023-03-01T07:01:46;29.63;;;16.63;;
2099;SDS011;1055;48.854;9.302;2023-03-01T07:04:12;32.40;;;17.63;;
2099;SDS011;1055;48.854;9.302;2023-03-01T07:06:39;34.13;;;17.52;;
2099;SDS011;1055;48.854;9.302;2023-03-01T07:09:05;33.10;;;18.60;;
2099;SDS011;1055;48.854;9.302;2023-03-01T07:11:30;39.63;;;19.67;;
2099;SDS011;1055;48.854;9.302;2023-03-01T07:13:56;32.00;;;18.93;;
2099;SDS011;1055;48.854;9.302;2023-03-01T07:16:23;34.13;;;21.27;;
2099;SDS011;1055;48.854;9.302;2023-03-01T07:18:49;32.17;;;17.93;;
2099;SDS011;1055;48.854;9.302;2023-03-01T07:21:14;31.33;;;17.60;;
2099;SDS011;1055;48.854;9.302;2023-03-01T07:23:41;31.45;;;17.98;;
2099;SDS011;1055;48.854;9.302;2023-03-01T07:26:07;31.13;;;18.45;;
2099;SDS011;1055;48.854;9.302;2023-03-01T07:28:33;35.40;;;18.63;;
2099;SDS011;1055;48.854;9.302;2023-03-01T07:31:01;38.15;;;18.33;;
2099;SDS011;1055;48.854;9.302;2023-03-01T07:33:28;33.17;;;18.73;;
2099;SDS011;1055;48.854;9.302;2023-03-01T07:35:57;29.43;;;18.33;;
2099;SDS011;1055;48.854;9.302;2023-03-01T07:38:25;34.95;;;18.35;;
2099;SDS011;1055;48.854;9.302;2023-03-01T07:40:51;31.88;;;18.38;;
2099;SDS011;1055;48.854;9.302;2023-03-01T07:43:17;31.10;;;17.83;;
2099;SDS011;1055;48.854;9.302;2023-03-01T07:45:42;33.80;;;18.63;;
2099;SDS011;1055;48.854;9.302;2023-03-01T07:48:08;30.93;;;18.50;;
2099;SDS011;1055;48.854;9.302;2023-03-01T07:50:34;36.20;;;18.80;;
2099;SDS011;1055;48.854;9.302;2023-03-01T07:53:00;28.43;;;17.00;;
2099;SDS011;1055;48.854;9.302;2023-03-01T07:55:25;34.00;;;18.57;;
2099;SDS011;1055;48.854;9.302;2023-03-01T07:57:52;33.33;;;18.27;;
2099;SDS011;1055;48.854;9.302;2023-03-01T08:00:24;36.53;;;19.27;;
2099;SDS011;1055;48.854;9.302;2023-03-01T08:02:50;26.63;;;16.00;;
2099;SDS011;1055;48.854;9.302;2023-03-01T08:05:16;35.43;;;20.17;;
2099;SDS011;1055;48.854;9.302;2023-03-01T08:07:41;30.00;;;17.53;;
2099;SDS011;1055;48.854;9.302;2023-03-01T08:10:07;29.97;;;18.17;;
2099;SDS011;1055;48.854;9.302;2023-03-01T08:12:33;35.00;;;16.77;;
2099;SDS011;1055;48.854;9.302;2023-03-01T08:14:59;31.70;;;17.80;;
2099;SDS011;1055;48.854;9.302;2023-03-01T08:17:24;32.17;;;18.20;;
2099;SDS011;1055;48.854;9.302;2023-03-01T08:19:50;36.40;;;19.53;;
2099;SDS011;1055;48.854;9.302;2023-03-01T08:22:16;32.87;;;18.07;;
2099;SDS011;1055;48.854;9.302;2023-03-01T08:24:41;30.53;;;18.50;;
2099;SDS011;1055;48.854;9.302;2023-03-01T08:27:07;33.03;;;19.30;;
2099;SDS011;1055;48.854;9.302;2023-03-01T08:29:33;33.30;;;19.38;;
2099;SDS011;1055;48.854;9.302;2023-03-01T08:31:59;30.88;;;17.17;;
2099;SDS011;1055;48.854;9.302;2023-03-01T08:34:25;31.20;;;18.80;;
2099;SDS011;1055;48.854;9.302;2023-03-01T08:36:51;32.75;;;17.25;;
2099;SDS011;1055;48.854;9.302;2023-03-01T08:39:17;29.67;;;17.95;;
2099;SDS011;1055;48.854;9.302;2023-03-01T08:41:45;29.00;;;17.50;;
2099;SDS011;1055;48.854;9.302;2023-03-01T08:44:12;31.10;;;17.77;;
2099;SDS011;1055;48.854;9.302;2023-03-01T08:46:39;34.30;;;18.02;;
2099;SDS011;1055;48.854;9.302;2023-03-01T08:49:11;33.45;;;18.73;;
2099;SDS011;1055;48.854;9.302;2023-03-01T08:51:41;30.23;;;18.02;;
2099;SDS011;1055;48.854;9.302;2023-03-01T08:54:11;31.40;;;18.15;;
2099;SDS011;1055;48.854;9.302;2023-03-01T08:56:39;31.20;;;17.90;;
2099;SDS011;1055;48.854;9.302;2023-03-01T08:59:06;37.65;;;18.77;;
2099;SDS011;1055;48.854;9.302;2023-03-01T09:01:31;29.53;;;17.60;;
2099;SDS011;1055;48.854;9.302;2023-03-01T09:03:57;28.63;;;16.40;;
2099;SDS011;1055;48.854;9.302;2023-03-01T09:06:23;32.23;;;18.07;;
2099;SDS011;1055;48.854;9.302;2023-03-01T09:08:49;34.03;;;17.53;;
2099;SDS011;1055;48.854;9.302;2023-03-01T09:11:16;29.05;;;17.05;;
2099;SDS011;1055;48.854;9.302;2023-03-01T09:13:44;30.42;;;19.10;;
2099;SDS011;1055;48.854;9.302;2023-03-01T09:16:11;32.33;;;18.48;;
2099;SDS011;1055;48.854;9.302;2023-03-01T09:18:38;31.35;;;18.50;;
2099;SDS011;1055;48.854;9.302;2023-03-01T09:21:05;32.50;;;18.50;;
2099;SDS011;1055;48.854;9.302;2023-03-01T09:23:33;33.50;;;18.38;;
2099;SDS011;1055;48.854;9.302;2023-03-01T09:26:01;29.15;;;16.95;;
2099;SDS011;1055;48.854;9.302;2023-03-01T09:28:27;36.72;;;18.77;;
2099;SDS011;1055;48.854;9.302;2023-03-01T09:30:53;31.00;;;17.80;;
2099;SDS011;1055;48.854;9.302;2023-03-01T09:33:18;28.57;;;16.60;;
2099;SDS011;1055;48.854;9.302;2023-03-01T09:35:44;31.87;;;18.20;;
2099;SDS011;1055;48.854;9.302;2023-03-01T09:38:12;27.10;;;16.45;;
2099;SDS011;1055;48.854;9.302;2023-03-01T09:40:41;33.15;;;19.27;;
2099;SDS011;1055;48.854;9.302;2023-03-01T09:43:15;29.20;;;17.90;;
2099;SDS011;1055;48.854;9.302;2023-03-01T09:45:59;28.95;;;17.63;;
2099;SDS011;1055;48.854;9.302;2023-03-01T09:48:30;28.58;;;16.35;;
2099;SDS011;1055;48.854;9.302;2023-03-01T09:51:04;28.83;;;17.58;;
2099;SDS011;1055;48.854;9.302;2023-03-01T09:53:33;32.75;;;18.17;;
2099;SDS011;1055;48.854;9.302;2023-03-01T09:56:05;28.00;;;18.00;;
2099;SDS011;1055;48.854;9.302;2023-03-01T10:04:49;32.10;;;17.73;;
2099;SDS011;1055;48.854;9.302;2023-03-01T10:07:28;26.10;;;15.20;;
2099;SDS011;1055;48.854;9.302;2023-03-01T10:10:00;27.55;;;15.70;;
2099;SDS011;1055;48.854;9.302;2023-03-01T10:12:33;30.05;;;18.40;;
2099;SDS011;1055;48.854;9.302;2023-03-01T10:15:06;26.77;;;16.50;;
2099;SDS011;1055;48.854;9.302;2023-03-01T10:17:54;26.63;;;16.75;;
2099;SDS011;1055;48.854;9.302;2023-03-01T10:20:23;27.50;;;17.92;;
2099;SDS011;1055;48.854;9.302;2023-03-01T10:22:51;30.92;;;18.20;;
2099;SDS011;1055;48.854;9.302;2023-03-01T10:28:20;28.38;;;17.60;;
2099;SDS011;1055;48.854;9.302;2023-03-01T10:31:01;30.60;;;18.30;;
2099;SDS011;1055;48.854;9.302;2023-03-01T10:33:29;26.90;;;17.20;;
2099;SDS011;1055;48.854;9.302;2023-03-01T10:35:57;30.73;;;16.80;;
2099;SDS011;1055;48.854;9.302;2023-03-01T10:38:23;26.27;;;17.33;;
2099;SDS011;1055;48.854;9.302;2023-03-01T10:40:56;25.25;;;16.02;;
2099;SDS011;1055;48.854;9.302;2023-03-01T10:43:27;25.65;;;13.30;;
2099;SDS011;1055;48.854;9.302;2023-03-01T10:46:11;25.42;;;15.88;;
2099;SDS011;1055;48.854;9.302;2023-03-01T10:49:07;26.95;;;17.23;;
2099;SDS011;1055;48.854;9.302;2023-03-01T10:51:43;25.98;;;16.15;;
2099;SDS011;1055;48.854;9.302;2023-03-01T10:56:59;25.50;;;16.13;;
2099;SDS011;1055;48.854;9.302;2023-03-01T10:59:34;24.38;;;15.25;;
2099;SDS011;1055;48.854;9.302;2023-03-01T11:05:22;24.67;;;15.40;;
2099;SDS011;1055;48.854;9.302;2023-03-01T11:07:49;27.80;;;16.85;;
2099;SDS011;1055;48.854;9.302;2023-03-01T11:10:23;24.58;;;16.05;;
2099;SDS011;1055;48.854;9.302;2023-03-01T11:12:53;25.40;;;15.90;;
2099;SDS011;1055;48.854;9.302;2023-03-01T11:15:30;25.35;;;15.15;;
2099;SDS011;1055;48.854;9.302;2023-03-01T11:17:56;29.43;;;16.10;;
2099;SDS011;1055;48.854;9.302;2023-03-01T11:20:27;26.20;;;16.05;;
2099;SDS011;1055;48.854;9.302;2023-03-01T11:22:55;23.50;;;14.70;;
2099;SDS011;1055;48.854;9.302;2023-03-01T11:25:31;26.85;;;16.15;;
2099;SDS011;1055;48.854;9.302;2023-03-01T11:28:01;23.58;;;15.57;;
2099;SDS011;1055;48.854;9.302;2023-03-01T11:30:31;23.27;;;14.40;;
2099;SDS011;1055;48.854;9.302;2023-03-01T11:35:30;26.73;;;15.40;;
2099;SDS011;1055;48.854;9.302;2023-03-01T11:51:48;24.58;;;15.18;;
2099;SDS011;1055;48.854;9.302;2023-03-01T12:02:46;22.30;;;14.35;;
2099;SDS011;1055;48.854;9.302;2023-03-01T12:08:09;22.10;;;14.85;;
2099;SDS011;1055;48.854;9.302;2023-03-01T12:16:23;25.13;;;14.50;;
2099;SDS011;1055;48.854;9.302;2023-03-01T12:21:59;24.48;;;16.88;;
2099;SDS011;1055;48.854;9.302;2023-03-01T12:30:17;22.63;;;15.60;;
2099;SDS011;1055;48.854;9.302;2023-03-01T12:38:59;19.90;;;14.07;;
2099;SDS011;1055;48.854;9.302;2023-03-01T12:41:44;21.02;;;13.45;;
2099;SDS011;1055;48.854;9.302;2023-03-01T12:47:41;25.15;;;15.57;;
2099;SDS011;1055;48.854;9.302;2023-03-01T12:50:50;20.50;;;13.00;;
2099;SDS011;1055;48.854;9.302;2023-03-01T12:53:27;22.45;;;14.95;;
2099;SDS011;1055;48.854;9.302;2023-03-01T12:55:58;22.33;;;14.10;;
2099;SDS011;1055;48.854;9.302;2023-03-01T13:07:04;22.05;;;14.60;;
2099;SDS011;1055;48.854;9.302;2023-03-01T13:09:51;23.98;;;16.65;;
2099;SDS011;1055;48.854;9.302;2023-03-01T13:12:46;23.63;;;16.15;;
2099;SDS011;1055;48.854;9.302;2023-03-01T13:15:27;20.67;;;16.27;;
2099;SDS011;1055;48.854;9.302;2023-03-01T13:18:11;23.85;;;16.13;;
2099;SDS011;1055;48.854;9.302;2023-03-01T13:20:51;25.60;;;16.83;;
2099;SDS011;1055;48.854;9.302;2023-03-01T13:33:51;26.30;;;18.17;;
2099;SDS011;1055;48.854;9.302;2023-03-01T13:38:58;24.35;;;15.50;;
2099;SDS011;1055;48.854;9.302;2023-03-01T13:41:52;28.02;;;19.35;;
2099;SDS011;1055;48.854;9.302;2023-03-01T13:44:26;25.27;;;18.92;;
2099;SDS011;1055;48.854;9.302;2023-03-01T13:49:46;25.27;;;17.27;;
2099;SDS011;1055;48.854;9.302;2023-03-01T13:57:42;30.77;;;18.90;;
2099;SDS011;1055;48.854;9.302;2023-03-01T14:00:37;26.80;;;19.15;;
2099;SDS011;1055;48.854;9.302;2023-03-01T14:05:38;25.77;;;18.58;;
2099;SDS011;1055;48.854;9.302;2023-03-01T14:08:17;29.42;;;19.42;;
2099;SDS011;1055;48.854;9.302;2023-03-01T14:10:59;26.10;;;19.13;;
2099;SDS011;1055;48.854;9.302;2023-03-01T14:16:17;27.90;;;17.70;;
2099;SDS011;1055;48.854;9.302;2023-03-01T14:24:57;27.42;;;17.98;;
2099;SDS011;1055;48.854;9.302;2023-03-01T14:27:38;25.13;;;16.60;;
2099;SDS011;1055;48.854;9.302;2023-03-01T14:33:02;26.90;;;18.73;;
2099;SDS011;1055;48.854;9.302;2023-03-01T14:35:32;24.63;;;18.58;;
2099;SDS011;1055;48.854;9.302;2023-03-01T14:38:00;28.30;;;17.60;;
2099;SDS011;1055;48.854;9.302;2023-03-01T14:40:30;27.00;;;19.05;;
2099;SDS011;1055;48.854;9.302;2023-03-01T14:43:00;24.85;;;17.58;;
2099;SDS011;1055;48.854;9.302;2023-03-01T14:45:28;28.48;;;17.80;;
2099;SDS011;1055;48.854;9.302;2023-03-01T14:47:55;27.92;;;20.35;;
2099;SDS011;1055;48.854;9.302;2023-03-01T14:50:27;25.90;;;18.52;;
2099;SDS011;1055;48.854;9.302;2023-03-01T14:53:04;27.67;;;18.25;;
2099;SDS011;1055;48.854;9.302;2023-03-01T14:55:33;29.30;;;18.30;;
2099;SDS011;1055;48.854;9.302;2023-03-01T14:58:03;27.77;;;19.00;;
2099;SDS011;1055;48.854;9.302;2023-03-01T15:00:31;27.55;;;18.17;;
2099;SDS011;1055;48.854;9.302;2023-03-01T15:03:11;27.23;;;19.00;;
2099;SDS011;1055;48.854;9.302;2023-03-01T15:05:41;26.60;;;18.60;;
2099;SDS011;1055;48.854;9.302;2023-03-01T15:08:22;24.15;;;17.60;;
2099;SDS011;1055;48.854;9.302;2023-03-01T15:11:17;31.55;;;18.45;;
2099;SDS011;1055;48.854;9.302;2023-03-01T15:13:55;24.33;;;17.63;;
2099;SDS011;1055;48.854;9.302;2023-03-01T15:16:22;25.80;;;18.58;;
2099;SDS011;1055;48.854;9.302;2023-03-01T15:18:53;28.13;;;18.77;;
2099;SDS011;1055;48.854;9.302;2023-03-01T15:24:01;28.38;;;18.05;;
2099;SDS011;1055;48.854;9.302;2023-03-01T15:26:56;31.63;;;20.10;;
2099;SDS011;1055;48.854;9.302;2023-03-01T15:29:29;26.35;;;17.80;;
2099;SDS011;1055;48.854;9.302;2023-03-01T15:34:30;27.30;;;18.17;;
2099;SDS011;1055;48.854;9.302;2023-03-01T15:36:58;29.27;;;17.90;;
2099;SDS011;1055;48.854;9.302;2023-03-01T15:44:42;26.85;;;18.73;;
2099;SDS011;1055;48.854;9.302;2023-03-01T15:47:29;24.80;;;17.00;;
2099;SDS011;1055;48.854;9.302;2023-03-01T15:49:56;23.13;;;15.77;;
2099;SDS011;1055;48.854;9.302;2023-03-01T15:52:28;23.35;;;16.73;;
2099;SDS011;1055;48.854;9.302;2023-03-01T15:54:56;22.70;;;16.00;;
2099;SDS011;1055;48.854;9.302;2023-03-01T15:57:25;26.45;;;17.50;;
2099;SDS011;1055;48.854;9.302;2023-03-01T15:59:51;23.08;;;17.23;;
2099;SDS011;1055;48.854;9.302;2023-03-01T16:02:21;26.55;;;16.60;;
2099;SDS011;1055;48.854;9.302;2023-03-01T16:04:50;26.40;;;18.38;;
2099;SDS011;1055;48.854;9.302;2023-03-01T16:07:16;25.80;;;16.08;;
2099;SDS011;1055;48.854;9.302;2023-03-01T16:09:44;25.88;;;17.30;;
2099;SDS011;1055;48.854;9.302;2023-03-01T16:12:15;24.40;;;16.07;;
2099;SDS011;1055;48.854;9.302;2023-03-01T16:14:42;25.05;;;16.60;;
2099;SDS011;1055;48.854;9.302;2023-03-01T16:17:09;25.58;;;16.75;;
2099;SDS011;1055;48.854;9.302;2023-03-01T16:19:36;24.80;;;17.00;;
2099;SDS011;1055;48.854;9.302;2023-03-01T16:22:04;28.42;;;16.67;;
2099;SDS011;1055;48.854;9.302;2023-03-01T16:24:31;26.42;;;16.27;;
2099;SDS011;1055;48.854;9.302;2023-03-01T16:26:57;24.02;;;16.35;;
2099;SDS011;1055;48.854;9.302;2023-03-01T16:29:24;27.40;;;16.90;;
2099;SDS011;1055;48.854;9.302;2023-03-01T16:31:51;25.67;;;15.77;;
2099;SDS011;1055;48.854;9.302;2023-03-01T16:34:20;24.52;;;16.45;;
2099;SDS011;1055;48.854;9.302;2023-03-01T16:36:47;24.70;;;16.65;;
2099;SDS011;1055;48.854;9.302;2023-03-01T16:39:15;22.47;;;15.07;;
2099;SDS011;1055;48.854;9.302;2023-03-01T16:41:44;27.33;;;15.95;;
2099;SDS011;1055;48.854;9.302;2023-03-01T16:44:11;22.05;;;15.57;;
2099;SDS011;1055;48.854;9.302;2023-03-01T16:46:39;20.75;;;14.50;;
2099;SDS011;1055;48.854;9.302;2023-03-01T16:49:08;29.67;;;17.70;;
2099;SDS011;1055;48.854;9.302;2023-03-01T16:51:35;25.60;;;17.08;;
2099;SDS011;1055;48.854;9.302;2023-03-01T16:54:02;24.40;;;14.10;;
2099;SDS011;1055;48.854;9.302;2023-03-01T16:56:29;23.15;;;15.50;;
2099;SDS011;1055;48.854;9.302;2023-03-01T16:59:02;25.17;;;16.77;;
2099;SDS011;1055;48.854;9.302;2023-03-01T17:01:30;25.08;;;16.67;;
2099;SDS011;1055;48.854;9.302;2023-03-01T17:04:02;24.23;;;15.27;;
2099;SDS011;1055;48.854;9.302;2023-03-01T17:06:29;22.38;;;14.43;;
2099;SDS011;1055;48.854;9.302;2023-03-01T17:08:58;23.05;;;15.73;;
2099;SDS011;1055;48.854;9.302;2023-03-01T17:11:24;24.90;;;16.33;;
2099;SDS011;1055;48.854;9.302;2023-03-01T17:13:51;23.13;;;15.63;;